sensor_id;sensor_type;location;lat;lon;timestamp;P1;durP1;ratioP1;P2;durP2;ratioP2
10511;SDS011;5304;48.604;2.096;2023-12-14T04:59:43;4.40;;;1.50;;
10511;SDS011;5304;48.604;2.096;2023-12-14T05:02:27;5.53;;;1.43;;
10511;SDS011;5304;48.604;2.096;2023-12-14T05:05:12;3.63;;;1.43;;
10511;SDS011;5304;48.604;2.096;2023-12-14T05:07:56;4.03;;;1.50;;
10511;SDS011;5304;48.604;2.096;2023-12-14T05:10:40;3.40;;;1.60;;
10511;SDS011;5304;48.604;2.096;2023-12-14T05:13:24;4.03;;;1.40;;
10511;SDS011;5304;48.604;2.096;2023-12-14T05:16:15;4.50;;;2.00;;
10511;SDS011;5304;48.604;2.096;2023-12-14T05:18:59;3.13;;;1.63;;
10511;SDS011;5304;48.604;2.096;2023-12-14T05:21:43;4.00;;;1.57;;
10511;SDS011;5304;48.604;2.096;2023-12-14T05:24:28;11.80;;;2.10;;
10511;SDS011;5304;48.604;2.096;2023-12-14T05:27:12;3.57;;;1.77;;
10511;SDS011;5304;48.604;2.096;2023-12-14T05:29:56;3.90;;;1.70;;
10511;SDS011;5304;48.604;2.096;2023-12-14T05:32:41;4.30;;;2.20;;
10511;SDS011;5304;48.604;2.096;2023-12-14T05:35:25;5.53;;;2.27;;
10511;SDS011;5304;48.604;2.096;2023-12-14T05:38:10;7.27;;;2.10;;
10511;SDS011;5304;48.604;2.096;2023-12-14T05:40:54;4.87;;;1.77;;
10511;SDS011;5304;48.604;2.096;2023-12-14T05:43:38;4.77;;;1.83;;
10511;SDS011;5304;48.604;2.096;2023-12-14T05:46:23;7.07;;;1.97;;
10511;SDS011;5304;48.604;2.096;2023-12-14T05:49:08;5.43;;;2.07;;
10511;SDS011;5304;48.604;2.096;2023-12-14T05:51:52;3.17;;;2.10;;
10511;SDS011;5304;48.604;2.096;2023-12-14T05:54:37;2.73;;;1.90;;
10511;SDS011;5304;48.604;2.096;2023-12-14T05:57:22;6.93;;;2.20;;
10511;SDS011;5304;48.604;2.096;2023-12-14T06:00:06;6.23;;;1.77;;
10511;SDS011;5304;48.604;2.096;2023-12-14T06:02:51;2.50;;;1.53;;
10511;SDS011;5304;48.604;2.096;2023-12-14T06:05:35;5.50;;;2.00;;
10511;SDS011;5304;48.604;2.096;2023-12-14T06:08:20;6.60;;;1.57;;
10511;SDS011;5304;48.604;2.096;2023-12-14T06:11:04;4.17;;;2.20;;
10511;SDS011;5304;48.604;2.096;2023-12-14T06:13:49;3.43;;;1.43;;
10511;SDS011;5304;48.604;2.096;2023-12-14T06:16:34;5.97;;;1.80;;
10511;SDS011;5304;48.604;2.096;2023-12-14T06:19:18;7.47;;;1.90;;
10511;SDS011;5304;48.604;2.096;2023-12-14T06:22:03;3.40;;;1.70;;
10511;SDS011;5304;48.604;2.096;2023-12-14T06:24:47;4.47;;;1.63;;
10511;SDS011;5304;48.604;2.096;2023-12-14T06:27:31;4.30;;;1.60;;
10511;SDS011;5304;48.604;2.096;2023-12-14T06:30:16;2.20;;;1.63;;
10511;SDS011;5304;48.604;2.096;2023-12-14T06:33:00;6.07;;;1.73;;
10511;SDS011;5304;48.604;2.096;2023-12-14T06:35:45;3.33;;;1.53;;
10511;SDS011;5304;48.604;2.096;2023-12-14T06:38:29;4.30;;;1.57;;
10511;SDS011;5304;48.604;2.096;2023-12-14T06:41:20;3.70;;;1.60;;
10511;SDS011;5304;48.604;2.096;2023-12-14T06:44:05;6.43;;;1.83;;
10511;SDS011;5304;48.604;2.096;2023-12-14T06:46:52;1.57;;;1.40;;
10511;SDS011;5304;48.604;2.096;2023-12-14T06:49:37;7.33;;;1.90;;
10511;SDS011;5304;48.604;2.096;2023-12-14T06:52:22;3.33;;;1.60;;
10511;SDS011;5304;48.604;2.096;2023-12-14T06:55:06;2.93;;;1.53;;
10511;SDS011;5304;48.604;2.096;2023-12-14T06:57:51;1.87;;;1.60;;
10511;SDS011;5304;48.604;2.096;2023-12-14T07:00:35;3.27;;;1.77;;
10511;SDS011;5304;48.604;2.096;2023-12-14T07:03:20;3.67;;;1.80;;
10511;SDS011;5304;48.604;2.096;2023-12-14T07:06:04;3.80;;;1.93;;
10511;SDS011;5304;48.604;2.096;2023-12-14T07:08:48;8.17;;;2.40;;
10511;SDS011;5304;48.604;2.096;2023-12-14T07:11:32;5.13;;;2.20;;
10511;SDS011;5304;48.604;2.096;2023-12-14T07:14:16;3.53;;;1.93;;
10511;SDS011;5304;48.604;2.096;2023-12-14T07:17:01;4.23;;;2.20;;
10511;SDS011;5304;48.604;2.096;2023-12-14T07:19:45;4.63;;;1.93;;
10511;SDS011;5304;48.604;2.096;2023-12-14T07:22:30;4.97;;;2.00;;
10511;SDS011;5304;48.604;2.096;2023-12-14T07:25:14;3.50;;;1.70;;
10511;SDS011;5304;48.604;2.096;2023-12-14T07:27:58;3.90;;;2.00;;
10511;SDS011;5304;48.604;2.096;2023-12-14T07:30:43;2.97;;;1.80;;
10511;SDS011;5304;48.604;2.096;2023-12-14T07:33:28;5.30;;;2.30;;
10511;SDS011;5304;48.604;2.096;2023-12-14T07:36:12;5.37;;;1.73;;
10511;SDS011;5304;48.604;2.096;2023-12-14T07:38:56;7.97;;;1.70;;
10511;SDS011;5304;48.604;2.096;2023-12-14T07:41:41;5.47;;;2.10;;
10511;SDS011;5304;48.604;2.096;2023-12-14T07:44:25;5.13;;;2.10;;
10511;SDS011;5304;48.604;2.096;2023-12-14T07:47:09;4.57;;;2.33;;
10511;SDS011;5304;48.604;2.096;2023-12-14T07:49:54;3.13;;;2.03;;
10511;SDS011;5304;48.604;2.096;2023-12-14T07:52:40;4.43;;;1.97;;
10511;SDS011;5304;48.604;2.096;2023-12-14T07:55:24;4.87;;;2.50;;
10511;SDS011;5304;48.604;2.096;2023-12-14T07:58:09;7.53;;;2.60;;
10511;SDS011;5304;48.604;2.096;2023-12-14T08:00:53;11.57;;;2.50;;
10511;SDS011;5304;48.604;2.096;2023-12-14T08:03:37;25.73;;;7.53;;
10511;SDS011;5304;48.604;2.096;2023-12-14T08:06:21;8.80;;;3.77;;
10511;SDS011;5304;48.604;2.096;2023-12-14T08:09:06;7.37;;;3.43;;
10511;SDS011;5304;48.604;2.096;2023-12-14T08:11:50;8.23;;;3.63;;
10511;SDS011;5304;48.604;2.096;2023-12-14T08:14:36;5.77;;;2.20;;
10511;SDS011;5304;48.604;2.096;2023-12-14T08:17:27;5.33;;;2.63;;
10511;SDS011;5304;48.604;2.096;2023-12-14T08:20:11;6.07;;;2.60;;
10511;SDS011;5304;48.604;2.096;2023-12-14T08:22:57;4.97;;;2.83;;
10511;SDS011;5304;48.604;2.096;2023-12-14T08:25:41;6.00;;;3.53;;
10511;SDS011;5304;48.604;2.096;2023-12-14T08:28:25;7.10;;;2.93;;
10511;SDS011;5304;48.604;2.096;2023-12-14T08:31:09;4.17;;;2.60;;
10511;SDS011;5304;48.604;2.096;2023-12-14T08:33:55;6.13;;;3.17;;
10511;SDS011;5304;48.604;2.096;2023-12-14T08:36:39;6.90;;;2.87;;
10511;SDS011;5304;48.604;2.096;2023-12-14T08:39:24;4.63;;;2.70;;
10511;SDS011;5304;48.604;2.096;2023-12-14T08:42:09;6.20;;;2.30;;
10511;SDS011;5304;48.604;2.096;2023-12-14T08:44:55;6.67;;;3.07;;
10511;SDS011;5304;48.604;2.096;2023-12-14T08:47:40;4.50;;;2.57;;
10511;SDS011;5304;48.604;2.096;2023-12-14T08:50:24;10.30;;;3.03;;
10511;SDS011;5304;48.604;2.096;2023-12-14T08:53:09;5.83;;;2.40;;
10511;SDS011;5304;48.604;2.096;2023-12-14T08:55:55;5.90;;;2.73;;
10511;SDS011;5304;48.604;2.096;2023-12-14T08:58:39;4.70;;;2.40;;
10511;SDS011;5304;48.604;2.096;2023-12-14T09:01:24;7.43;;;2.97;;
10511;SDS011;5304;48.604;2.096;2023-12-14T09:04:08;7.40;;;3.90;;
10511;SDS011;5304;48.604;2.096;2023-12-14T09:06:53;4.13;;;2.30;;
10511;SDS011;5304;48.604;2.096;2023-12-14T09:09:37;5.73;;;2.60;;
10511;SDS011;5304;48.604;2.096;2023-12-14T09:12:21;5.40;;;2.57;;
10511;SDS011;5304;48.604;2.096;2023-12-14T09:15:06;6.23;;;2.70;;
10511;SDS011;5304;48.604;2.096;2023-12-14T09:17:51;7.00;;;2.33;;
10511;SDS011;5304;48.604;2.096;2023-12-14T09:20:35;7.90;;;2.50;;
10511;SDS011;5304;48.604;2.096;2023-12-14T09:23:21;5.83;;;2.37;;
10511;SDS011;5304;48.604;2.096;2023-12-14T09:26:05;3.67;;;2.60;;
10511;SDS011;5304;48.604;2.096;2023-12-14T09:28:49;5.43;;;2.50;;
10511;SDS011;5304;48.604;2.096;2023-12-14T09:31:34;6.83;;;2.90;;
10511;SDS011;5304;48.604;2.096;2023-12-14T09:34:18;10.37;;;3.70;;
10511;SDS011;5304;48.604;2.096;2023-12-14T09:37:03;6.93;;;2.80;;
10511;SDS011;5304;48.604;2.096;2023-12-14T09:39:47;6.63;;;3.17;;
10511;SDS011;5304;48.604;2.096;2023-12-14T09:42:35;7.03;;;3.57;;
10511;SDS011;5304;48.604;2.096;2023-12-14T09:45:23;7.90;;;3.07;;
10511;SDS011;5304;48.604;2.096;2023-12-14T09:48:11;8.90;;;3.33;;
10511;SDS011;5304;48.604;2.096;2023-12-14T09:50:56;7.47;;;2.90;;
10511;SDS011;5304;48.604;2.096;2023-12-14T09:53:41;6.77;;;2.60;;
10511;SDS011;5304;48.604;2.096;2023-12-14T09:56:25;5.93;;;2.53;;
10511;SDS011;5304;48.604;2.096;2023-12-14T09:59:10;7.43;;;2.20;;
10511;SDS011;5304;48.604;2.096;2023-12-14T10:02:11;8.87;;;2.63;;
10511;SDS011;5304;48.604;2.096;2023-12-14T10:04:56;7.20;;;3.03;;
10511;SDS011;5304;48.604;2.096;2023-12-14T10:07:41;5.70;;;2.30;;
10511;SDS011;5304;48.604;2.096;2023-12-14T10:10:29;3.70;;;2.40;;
10511;SDS011;5304;48.604;2.096;2023-12-14T10:13:14;5.23;;;2.00;;
10511;SDS011;5304;48.604;2.096;2023-12-14T10:15:59;6.27;;;2.13;;
10511;SDS011;5304;48.604;2.096;2023-12-14T10:18:43;3.37;;;2.00;;
10511;SDS011;5304;48.604;2.096;2023-12-14T10:21:27;5.63;;;2.10;;
10511;SDS011;5304;48.604;2.096;2023-12-14T10:24:13;4.00;;;1.70;;
10511;SDS011;5304;48.604;2.096;2023-12-14T10:26:57;3.63;;;1.80;;
10511;SDS011;5304;48.604;2.096;2023-12-14T10:29:41;5.20;;;2.40;;
10511;SDS011;5304;48.604;2.096;2023-12-14T10:32:28;2.23;;;1.30;;
10511;SDS011;5304;48.604;2.096;2023-12-14T10:35:13;2.47;;;1.47;;
10511;SDS011;5304;48.604;2.096;2023-12-14T10:38:03;6.63;;;3.50;;
10511;SDS011;5304;48.604;2.096;2023-12-14T10:40:48;5.70;;;2.23;;
10511;SDS011;5304;48.604;2.096;2023-12-14T10:43:35;6.07;;;2.03;;
10511;SDS011;5304;48.604;2.096;2023-12-14T10:46:20;5.07;;;1.93;;
10511;SDS011;5304;48.604;2.096;2023-12-14T10:49:05;5.73;;;1.93;;
10511;SDS011;5304;48.604;2.096;2023-12-14T10:51:51;2.17;;;1.40;;
10511;SDS011;5304;48.604;2.096;2023-12-14T10:54:40;3.10;;;1.63;;
10511;SDS011;5304;48.604;2.096;2023-12-14T10:57:25;3.57;;;1.90;;
10511;SDS011;5304;48.604;2.096;2023-12-14T11:00:10;1.77;;;1.33;;
10511;SDS011;5304;48.604;2.096;2023-12-14T11:02:55;2.50;;;1.80;;
10511;SDS011;5304;48.604;2.096;2023-12-14T11:05:43;4.53;;;2.07;;
10511;SDS011;5304;48.604;2.096;2023-12-14T11:08:27;4.47;;;2.60;;
10511;SDS011;5304;48.604;2.096;2023-12-14T11:11:12;5.03;;;2.40;;
10511;SDS011;5304;48.604;2.096;2023-12-14T11:14:00;4.63;;;1.80;;
10511;SDS011;5304;48.604;2.096;2023-12-14T11:16:44;4.57;;;2.17;;
10511;SDS011;5304;48.604;2.096;2023-12-14T11:19:31;3.73;;;1.70;;
10511;SDS011;5304;48.604;2.096;2023-12-14T11:22:23;5.83;;;2.13;;
10511;SDS011;5304;48.604;2.096;2023-12-14T11:25:08;3.50;;;1.87;;
10511;SDS011;5304;48.604;2.096;2023-12-14T11:27:53;3.90;;;1.73;;
10511;SDS011;5304;48.604;2.096;2023-12-14T11:30:37;4.67;;;1.73;;
10511;SDS011;5304;48.604;2.096;2023-12-14T11:33:22;5.50;;;2.10;;
10511;SDS011;5304;48.604;2.096;2023-12-14T11:36:07;4.80;;;2.60;;
10511;SDS011;5304;48.604;2.096;2023-12-14T11:38:53;4.43;;;1.77;;
10511;SDS011;5304;48.604;2.096;2023-12-14T11:41:39;2.93;;;2.00;;
10511;SDS011;5304;48.604;2.096;2023-12-14T11:44:24;4.90;;;1.47;;
10511;SDS011;5304;48.604;2.096;2023-12-14T11:47:09;5.53;;;1.70;;
10511;SDS011;5304;48.604;2.096;2023-12-14T11:49:53;3.47;;;1.97;;
10511;SDS011;5304;48.604;2.096;2023-12-14T11:52:37;2.07;;;1.60;;
10511;SDS011;5304;48.604;2.096;2023-12-14T11:55:21;3.80;;;1.67;;
10511;SDS011;5304;48.604;2.096;2023-12-14T11:58:06;5.13;;;1.83;;
10511;SDS011;5304;48.604;2.096;2023-12-14T12:00:52;4.23;;;1.70;;
10511;SDS011;5304;48.604;2.096;2023-12-14T12:03:36;3.10;;;1.53;;
10511;SDS011;5304;48.604;2.096;2023-12-14T12:06:21;2.80;;;1.50;;
10511;SDS011;5304;48.604;2.096;2023-12-14T12:09:11;2.87;;;1.57;;
10511;SDS011;5304;48.604;2.096;2023-12-14T12:11:57;3.93;;;1.50;;
10511;SDS011;5304;48.604;2.096;2023-12-14T12:14:41;7.83;;;1.87;;
10511;SDS011;5304;48.604;2.096;2023-12-14T12:17:26;5.20;;;1.40;;
10511;SDS011;5304;48.604;2.096;2023-12-14T12:20:10;5.33;;;1.60;;
10511;SDS011;5304;48.604;2.096;2023-12-14T12:22:54;4.30;;;2.20;;
10511;SDS011;5304;48.604;2.096;2023-12-14T12:25:39;3.87;;;1.83;;
10511;SDS011;5304;48.604;2.096;2023-12-14T12:28:23;5.90;;;1.60;;
10511;SDS011;5304;48.604;2.096;2023-12-14T12:31:07;4.00;;;2.60;;
10511;SDS011;5304;48.604;2.096;2023-12-14T12:33:51;4.20;;;2.83;;
10511;SDS011;5304;48.604;2.096;2023-12-14T12:36:36;7.13;;;1.67;;
10511;SDS011;5304;48.604;2.096;2023-12-14T12:39:20;8.00;;;2.13;;
10511;SDS011;5304;48.604;2.096;2023-12-14T12:42:05;5.93;;;2.10;;
10511;SDS011;5304;48.604;2.096;2023-12-14T12:44:49;3.17;;;1.60;;
10511;SDS011;5304;48.604;2.096;2023-12-14T12:47:33;2.03;;;1.20;;
10511;SDS011;5304;48.604;2.096;2023-12-14T12:50:17;5.47;;;1.80;;
10511;SDS011;5304;48.604;2.096;2023-12-14T12:53:02;6.60;;;1.57;;
10511;SDS011;5304;48.604;2.096;2023-12-14T12:55:46;3.60;;;1.60;;
10511;SDS011;5304;48.604;2.096;2023-12-14T12:58:30;4.37;;;2.47;;
10511;SDS011;5304;48.604;2.096;2023-12-14T13:01:15;3.67;;;1.70;;
10511;SDS011;5304;48.604;2.096;2023-12-14T13:03:59;2.23;;;1.40;;
10511;SDS011;5304;48.604;2.096;2023-12-14T13:06:44;5.87;;;1.53;;
10511;SDS011;5304;48.604;2.096;2023-12-14T13:09:29;4.43;;;1.60;;
10511;SDS011;5304;48.604;2.096;2023-12-14T13:12:13;4.33;;;1.80;;
10511;SDS011;5304;48.604;2.096;2023-12-14T13:14:58;2.10;;;1.60;;
10511;SDS011;5304;48.604;2.096;2023-12-14T13:17:43;3.20;;;1.50;;
10511;SDS011;5304;48.604;2.096;2023-12-14T13:20:27;1.20;;;1.10;;
10511;SDS011;5304;48.604;2.096;2023-12-14T13:23:12;8.77;;;1.90;;
10511;SDS011;5304;48.604;2.096;2023-12-14T13:25:56;2.53;;;1.43;;
10511;SDS011;5304;48.604;2.096;2023-12-14T13:28:40;3.73;;;1.20;;
10511;SDS011;5304;48.604;2.096;2023-12-14T13:31:25;6.30;;;1.13;;
10511;SDS011;5304;48.604;2.096;2023-12-14T13:34:09;3.47;;;1.77;;
10511;SDS011;5304;48.604;2.096;2023-12-14T13:36:56;3.40;;;1.63;;
10511;SDS011;5304;48.604;2.096;2023-12-14T13:39:44;4.50;;;1.50;;
10511;SDS011;5304;48.604;2.096;2023-12-14T13:42:28;2.63;;;1.47;;
10511;SDS011;5304;48.604;2.096;2023-12-14T13:45:12;2.33;;;1.40;;
10511;SDS011;5304;48.604;2.096;2023-12-14T13:47:57;5.03;;;1.13;;
10511;SDS011;5304;48.604;2.096;2023-12-14T13:50:42;2.30;;;1.30;;
10511;SDS011;5304;48.604;2.096;2023-12-14T13:53:27;2.00;;;0.93;;
10511;SDS011;5304;48.604;2.096;2023-12-14T13:56:11;4.97;;;1.63;;
10511;SDS011;5304;48.604;2.096;2023-12-14T13:58:55;4.17;;;1.67;;
10511;SDS011;5304;48.604;2.096;2023-12-14T14:01:39;3.80;;;1.30;;
10511;SDS011;5304;48.604;2.096;2023-12-14T14:04:24;1.97;;;1.57;;
10511;SDS011;5304;48.604;2.096;2023-12-14T14:07:08;5.37;;;1.53;;
10511;SDS011;5304;48.604;2.096;2023-12-14T14:09:52;2.47;;;1.60;;
10511;SDS011;5304;48.604;2.096;2023-12-14T14:12:37;6.10;;;2.00;;
10511;SDS011;5304;48.604;2.096;2023-12-14T14:15:21;5.33;;;1.50;;
10511;SDS011;5304;48.604;2.096;2023-12-14T14:18:06;3.47;;;1.60;;
10511;SDS011;5304;48.604;2.096;2023-12-14T14:20:50;3.03;;;1.87;;
10511;SDS011;5304;48.604;2.096;2023-12-14T14:23:34;4.63;;;1.77;;
10511;SDS011;5304;48.604;2.096;2023-12-14T14:26:19;6.80;;;2.23;;
10511;SDS011;5304;48.604;2.096;2023-12-14T14:29:03;3.73;;;2.00;;
10511;SDS011;5304;48.604;2.096;2023-12-14T14:31:47;8.67;;;2.10;;
10511;SDS011;5304;48.604;2.096;2023-12-14T14:34:32;5.47;;;1.87;;
10511;SDS011;5304;48.604;2.096;2023-12-14T14:37:16;5.60;;;2.00;;
10511;SDS011;5304;48.604;2.096;2023-12-14T14:40:00;4.47;;;2.00;;
10511;SDS011;5304;48.604;2.096;2023-12-14T14:42:44;3.87;;;2.07;;
10511;SDS011;5304;48.604;2.096;2023-12-14T14:45:29;9.10;;;4.03;;
10511;SDS011;5304;48.604;2.096;2023-12-14T14:48:13;4.73;;;2.63;;
10511;SDS011;5304;48.604;2.096;2023-12-14T14:50:58;3.63;;;2.30;;
10511;SDS011;5304;48.604;2.096;2023-12-14T14:53:42;5.57;;;3.20;;
10511;SDS011;5304;48.604;2.096;2023-12-14T14:56:26;4.43;;;2.03;;
10511;SDS011;5304;48.604;2.096;2023-12-14T14:59:11;8.87;;;4.50;;
10511;SDS011;5304;48.604;2.096;2023-12-14T15:01:59;9.50;;;5.13;;
10511;SDS011;5304;48.604;2.096;2023-12-14T15:04:45;8.07;;;4.00;;
10511;SDS011;5304;48.604;2.096;2023-12-14T15:07:29;5.93;;;2.67;;
10511;SDS011;5304;48.604;2.096;2023-12-14T15:10:14;6.67;;;3.73;;
10511;SDS011;5304;48.604;2.096;2023-12-14T15:12:58;7.57;;;4.53;;
10511;SDS011;5304;48.604;2.096;2023-12-14T15:15:42;5.50;;;3.30;;
10511;SDS011;5304;48.604;2.096;2023-12-14T15:18:27;8.37;;;4.50;;
10511;SDS011;5304;48.604;2.096;2023-12-14T15:21:11;7.93;;;4.77;;
10511;SDS011;5304;48.604;2.096;2023-12-14T15:23:55;4.10;;;3.00;;
10511;SDS011;5304;48.604;2.096;2023-12-14T15:26:41;3.60;;;2.60;;
10511;SDS011;5304;48.604;2.096;2023-12-14T15:29:26;8.03;;;3.67;;
10511;SDS011;5304;48.604;2.096;2023-12-14T15:32:10;5.63;;;3.13;;
10511;SDS011;5304;48.604;2.096;2023-12-14T15:34:55;8.07;;;4.57;;
10511;SDS011;5304;48.604;2.096;2023-12-14T15:37:39;6.20;;;3.40;;
10511;SDS011;5304;48.604;2.096;2023-12-14T15:40:24;7.23;;;4.00;;
10511;SDS011;5304;48.604;2.096;2023-12-14T15:43:08;6.13;;;2.63;;
10511;SDS011;5304;48.604;2.096;2023-12-14T15:45:52;5.40;;;2.13;;
10511;SDS011;5304;48.604;2.096;2023-12-14T15:48:37;4.73;;;1.83;;
10511;SDS011;5304;48.604;2.096;2023-12-14T15:51:21;2.63;;;1.93;;
10511;SDS011;5304;48.604;2.096;2023-12-14T15:54:05;6.13;;;2.00;;
10511;SDS011;5304;48.604;2.096;2023-12-14T15:56:49;8.10;;;2.60;;
10511;SDS011;5304;48.604;2.096;2023-12-14T15:59:34;5.53;;;2.33;;
10511;SDS011;5304;48.604;2.096;2023-12-14T16:02:18;4.30;;;2.00;;
10511;SDS011;5304;48.604;2.096;2023-12-14T16:05:02;3.70;;;2.00;;
10511;SDS011;5304;48.604;2.096;2023-12-14T16:07:47;4.10;;;2.30;;
10511;SDS011;5304;48.604;2.096;2023-12-14T16:10:31;5.50;;;2.27;;
10511;SDS011;5304;48.604;2.096;2023-12-14T16:13:16;3.17;;;2.30;;
10511;SDS011;5304;48.604;2.096;2023-12-14T16:16:00;7.93;;;2.80;;
10511;SDS011;5304;48.604;2.096;2023-12-14T16:18:45;8.10;;;2.30;;
10511;SDS011;5304;48.604;2.096;2023-12-14T16:21:29;7.00;;;4.53;;
10511;SDS011;5304;48.604;2.096;2023-12-14T16:24:13;14.47;;;7.57;;
10511;SDS011;5304;48.604;2.096;2023-12-14T16:26:57;8.90;;;6.87;;
10511;SDS011;5304;48.604;2.096;2023-12-14T16:29:45;6.00;;;5.13;;
10511;SDS011;5304;48.604;2.096;2023-12-14T16:32:30;5.57;;;3.70;;
10511;SDS011;5304;48.604;2.096;2023-12-14T16:35:14;4.83;;;3.50;;
10511;SDS011;5304;48.604;2.096;2023-12-14T16:37:59;4.70;;;3.17;;
10511;SDS011;5304;48.604;2.096;2023-12-14T16:40:45;15.33;;;5.60;;
10511;SDS011;5304;48.604;2.096;2023-12-14T16:43:29;5.23;;;2.10;;
10511;SDS011;5304;48.604;2.096;2023-12-14T16:46:16;4.50;;;2.30;;
10511;SDS011;5304;48.604;2.096;2023-12-14T16:49:01;5.10;;;2.00;;
10511;SDS011;5304;48.604;2.096;2023-12-14T16:51:46;6.87;;;2.00;;
10511;SDS011;5304;48.604;2.096;2023-12-14T16:54:30;6.80;;;3.00;;
10511;SDS011;5304;48.604;2.096;2023-12-14T16:57:15;6.27;;;3.03;;
10511;SDS011;5304;48.604;2.096;2023-12-14T16:59:59;6.33;;;3.50;;
10511;SDS011;5304;48.604;2.096;2023-12-14T17:02:44;5.97;;;3.80;;
10511;SDS011;5304;48.604;2.096;2023-12-14T17:05:28;7.73;;;4.10;;
10511;SDS011;5304;48.604;2.096;2023-12-14T17:08:12;5.37;;;3.23;;
10511;SDS011;5304;48.604;2.096;2023-12-14T17:10:56;5.63;;;3.27;;
10511;SDS011;5304;48.604;2.096;2023-12-14T17:13:40;6.53;;;3.47;;
10511;SDS011;5304;48.604;2.096;2023-12-14T17:16:25;7.87;;;3.63;;
10511;SDS011;5304;48.604;2.096;2023-12-14T17:19:09;6.67;;;3.70;;
10511;SDS011;5304;48.604;2.096;2023-12-14T17:21:54;7.80;;;3.53;;
10511;SDS011;5304;48.604;2.096;2023-12-14T17:24:39;12.27;;;4.00;;
10511;SDS011;5304;48.604;2.096;2023-12-14T17:27:23;7.57;;;4.10;;
10511;SDS011;5304;48.604;2.096;2023-12-14T17:30:08;6.20;;;3.80;;
10511;SDS011;5304;48.604;2.096;2023-12-14T17:32:53;9.10;;;6.23;;
10511;SDS011;5304;48.604;2.096;2023-12-14T17:35:38;13.33;;;8.83;;
10511;SDS011;5304;48.604;2.096;2023-12-14T17:38:22;25.23;;;15.10;;
10511;SDS011;5304;48.604;2.096;2023-12-14T17:41:10;14.30;;;9.63;;
10511;SDS011;5304;48.604;2.096;2023-12-14T17:43:56;15.03;;;11.73;;
10511;SDS011;5304;48.604;2.096;2023-12-14T17:46:42;15.77;;;8.90;;
10511;SDS011;5304;48.604;2.096;2023-12-14T17:49:26;8.87;;;5.33;;
10511;SDS011;5304;48.604;2.096;2023-12-14T17:52:11;6.77;;;5.10;;
10511;SDS011;5304;48.604;2.096;2023-12-14T17:54:57;5.57;;;3.47;;
10511;SDS011;5304;48.604;2.096;2023-12-14T17:57:41;5.87;;;2.40;;
10511;SDS011;5304;48.604;2.096;2023-12-14T18:00:25;3.97;;;2.13;;
10511;SDS011;5304;48.604;2.096;2023-12-14T18:03:10;8.60;;;2.90;;
10511;SDS011;5304;48.604;2.096;2023-12-14T18:05:54;7.23;;;4.13;;
10511;SDS011;5304;48.604;2.096;2023-12-14T18:08:39;7.90;;;3.80;;
10511;SDS011;5304;48.604;2.096;2023-12-14T18:11:23;7.67;;;3.47;;
10511;SDS011;5304;48.604;2.096;2023-12-14T18:14:08;6.50;;;3.50;;
10511;SDS011;5304;48.604;2.096;2023-12-14T18:16:52;5.83;;;3.20;;
10511;SDS011;5304;48.604;2.096;2023-12-14T18:19:36;5.87;;;4.30;;
10511;SDS011;5304;48.604;2.096;2023-12-14T18:22:21;7.00;;;4.40;;
10511;SDS011;5304;48.604;2.096;2023-12-14T18:25:06;6.70;;;4.50;;
10511;SDS011;5304;48.604;2.096;2023-12-14T18:27:51;8.57;;;5.10;;
10511;SDS011;5304;48.604;2.096;2023-12-14T18:30:36;11.00;;;5.60;;
10511;SDS011;5304;48.604;2.096;2023-12-14T18:33:21;11.37;;;5.87;;
10511;SDS011;5304;48.604;2.096;2023-12-14T18:36:05;8.37;;;4.67;;
10511;SDS011;5304;48.604;2.096;2023-12-14T18:38:50;9.07;;;5.30;;
10511;SDS011;5304;48.604;2.096;2023-12-14T18:41:34;10.50;;;6.10;;
10511;SDS011;5304;48.604;2.096;2023-12-14T18:44:19;7.63;;;4.50;;
10511;SDS011;5304;48.604;2.096;2023-12-14T18:47:03;9.23;;;4.77;;
10511;SDS011;5304;48.604;2.096;2023-12-14T18:49:48;6.73;;;4.20;;
10511;SDS011;5304;48.604;2.096;2023-12-14T18:52:32;6.30;;;4.10;;
10511;SDS011;5304;48.604;2.096;2023-12-14T18:55:17;7.53;;;3.53;;
10511;SDS011;5304;48.604;2.096;2023-12-14T18:58:02;7.53;;;4.07;;
10511;SDS011;5304;48.604;2.096;2023-12-14T19:00:49;7.43;;;4.13;;
10511;SDS011;5304;48.604;2.096;2023-12-14T19:03:34;7.40;;;4.37;;
10511;SDS011;5304;48.604;2.096;2023-12-14T19:06:21;8.23;;;4.67;;
10511;SDS011;5304;48.604;2.096;2023-12-14T19:09:05;8.43;;;5.33;;
10511;SDS011;5304;48.604;2.096;2023-12-14T19:11:50;8.67;;;4.20;;
10511;SDS011;5304;48.604;2.096;2023-12-14T19:14:34;7.77;;;4.60;;
10511;SDS011;5304;48.604;2.096;2023-12-14T19:17:19;8.97;;;4.17;;
10511;SDS011;5304;48.604;2.096;2023-12-14T19:20:03;5.33;;;3.87;;
10511;SDS011;5304;48.604;2.096;2023-12-14T19:22:50;5.10;;;3.73;;
10511;SDS011;5304;48.604;2.096;2023-12-14T19:25:34;5.57;;;3.90;;
10511;SDS011;5304;48.604;2.096;2023-12-14T19:28:19;10.13;;;7.90;;
10511;SDS011;5304;48.604;2.096;2023-12-14T19:31:03;9.67;;;5.47;;
10511;SDS011;5304;48.604;2.096;2023-12-14T19:33:47;8.63;;;5.40;;
10511;SDS011;5304;48.604;2.096;2023-12-14T19:36:33;7.40;;;4.43;;
10511;SDS011;5304;48.604;2.096;2023-12-14T19:39:18;7.83;;;4.23;;
10511;SDS011;5304;48.604;2.096;2023-12-14T19:42:03;5.03;;;3.50;;
10511;SDS011;5304;48.604;2.096;2023-12-14T19:44:47;8.93;;;6.40;;
10511;SDS011;5304;48.604;2.096;2023-12-14T19:47:31;14.10;;;6.73;;
10511;SDS011;5304;48.604;2.096;2023-12-14T19:50:17;9.43;;;5.13;;
10511;SDS011;5304;48.604;2.096;2023-12-14T19:53:02;5.03;;;3.60;;
10511;SDS011;5304;48.604;2.096;2023-12-14T19:55:46;9.87;;;3.77;;
10511;SDS011;5304;48.604;2.096;2023-12-14T19:58:31;4.07;;;3.10;;
10511;SDS011;5304;48.604;2.096;2023-12-14T20:01:15;4.80;;;3.10;;
10511;SDS011;5304;48.604;2.096;2023-12-14T20:04:00;5.73;;;3.20;;
10511;SDS011;5304;48.604;2.096;2023-12-14T20:06:45;6.27;;;3.40;;
10511;SDS011;5304;48.604;2.096;2023-12-14T20:09:29;5.50;;;2.40;;
10511;SDS011;5304;48.604;2.096;2023-12-14T20:12:13;5.53;;;3.47;;
10511;SDS011;5304;48.604;2.096;2023-12-14T20:14:57;6.27;;;3.47;;
10511;SDS011;5304;48.604;2.096;2023-12-14T20:17:42;4.67;;;3.10;;
10511;SDS011;5304;48.604;2.096;2023-12-14T20:20:26;9.33;;;6.10;;
10511;SDS011;5304;48.604;2.096;2023-12-14T20:23:10;6.37;;;3.33;;
10511;SDS011;5304;48.604;2.096;2023-12-14T20:25:55;5.97;;;3.23;;
10511;SDS011;5304;48.604;2.096;2023-12-14T20:28:41;8.23;;;3.13;;
10511;SDS011;5304;48.604;2.096;2023-12-14T20:31:26;7.63;;;3.50;;
10511;SDS011;5304;48.604;2.096;2023-12-14T20:34:10;5.60;;;3.00;;
10511;SDS011;5304;48.604;2.096;2023-12-14T20:36:54;8.07;;;3.33;;
10511;SDS011;5304;48.604;2.096;2023-12-14T20:39:39;6.67;;;3.27;;
10511;SDS011;5304;48.604;2.096;2023-12-14T20:42:23;3.93;;;2.73;;
10511;SDS011;5304;48.604;2.096;2023-12-14T20:45:07;9.47;;;3.67;;
10511;SDS011;5304;48.604;2.096;2023-12-14T20:47:52;4.13;;;2.70;;
10511;SDS011;5304;48.604;2.096;2023-12-14T20:50:38;7.50;;;3.17;;
10511;SDS011;5304;48.604;2.096;2023-12-14T20:53:22;10.77;;;4.20;;
10511;SDS011;5304;48.604;2.096;2023-12-14T20:56:06;5.03;;;2.80;;
10511;SDS011;5304;48.604;2.096;2023-12-14T20:58:51;11.17;;;5.20;;
10511;SDS011;5304;48.604;2.096;2023-12-14T21:01:36;7.77;;;5.10;;
10511;SDS011;5304;48.604;2.096;2023-12-14T21:04:20;13.83;;;4.90;;
10511;SDS011;5304;48.604;2.096;2023-12-14T21:07:04;12.43;;;6.13;;
10511;SDS011;5304;48.604;2.096;2023-12-14T21:09:48;7.23;;;4.37;;
10511;SDS011;5304;48.604;2.096;2023-12-14T21:12:32;5.83;;;3.77;;
10511;SDS011;5304;48.604;2.096;2023-12-14T21:15:17;6.87;;;3.60;;
10511;SDS011;5304;48.604;2.096;2023-12-14T21:18:01;6.53;;;3.97;;
10511;SDS011;5304;48.604;2.096;2023-12-14T21:20:46;7.50;;;4.23;;
10511;SDS011;5304;48.604;2.096;2023-12-14T21:23:30;5.80;;;3.73;;
10511;SDS011;5304;48.604;2.096;2023-12-14T21:26:14;5.17;;;3.50;;
10511;SDS011;5304;48.604;2.096;2023-12-14T21:28:59;6.07;;;3.60;;
10511;SDS011;5304;48.604;2.096;2023-12-14T21:31:44;5.33;;;3.63;;
10511;SDS011;5304;48.604;2.096;2023-12-14T21:34:28;7.77;;;3.53;;
10511;SDS011;5304;48.604;2.096;2023-12-14T21:37:14;7.73;;;3.90;;
